createdAt,value
2022-08-20T00:00:55.147Z,13.93
2022-08-20T00:03:35.972Z,13.93
2022-08-20T00:06:19.048Z,13.88
2022-08-20T00:08:47.307Z,13.86
2022-08-20T00:11:24.386Z,13.87
2022-08-20T00:13:58.108Z,13.82
2022-08-20T00:16:32.573Z,13.78
2022-08-20T00:19:06.197Z,13.76
2022-08-20T00:21:34.102Z,13.77
2022-08-20T00:24:02.005Z,13.76
2022-08-20T00:26:28.844Z,13.74
2022-08-20T00:28:55.817Z,13.73
2022-08-20T00:31:24.546Z,13.74
2022-08-20T00:33:52.488Z,13.71
2022-08-20T00:36:20.007Z,13.73
2022-08-20T00:38:47.769Z,13.72
2022-08-20T00:41:23.044Z,13.69
2022-08-20T00:44:07.560Z,13.66
2022-08-20T00:46:35.344Z,13.68
2022-08-20T00:49:04.024Z,13.67
2022-08-20T00:51:43.991Z,13.64
2022-08-20T00:54:24.124Z,13.65
2022-08-20T00:57:09.177Z,13.64
2022-08-20T00:59:40.223Z,13.63
2022-08-20T01:02:14.458Z,13.61
2022-08-20T01:04:46.905Z,13.60
2022-08-20T01:07:13.942Z,13.60
2022-08-20T01:09:58.331Z,13.60
2022-08-20T01:12:29.076Z,13.59
2022-08-20T01:14:59.455Z,13.58
2022-08-20T01:17:30.014Z,13.59
2022-08-20T01:20:09.156Z,13.56
2022-08-20T01:23:14.866Z,13.55
2022-08-20T01:25:56.456Z,13.55
2022-08-20T01:28:44.598Z,13.53
2022-08-20T01:31:20.163Z,13.54
2022-08-20T01:33:49.173Z,13.53
2022-08-20T01:36:20.089Z,13.53
2022-08-20T01:38:54.255Z,13.49
2022-08-20T01:41:53.665Z,13.47
2022-08-20T01:44:21.924Z,13.47
2022-08-20T01:46:57.699Z,13.46
2022-08-20T01:49:30.452Z,13.44
2022-08-20T01:52:02.143Z,13.45
2022-08-20T01:54:29.118Z,13.44
2022-08-20T01:57:01.932Z,13.43
2022-08-20T01:59:30.209Z,13.46
2022-08-20T02:02:00.722Z,13.41
2022-08-20T02:04:27.641Z,13.41
2022-08-20T02:06:59.416Z,13.40
2022-08-20T02:09:30.502Z,13.42
2022-08-20T02:11:58.837Z,13.42
2022-08-20T02:14:27.453Z,13.37
2022-08-20T02:16:55.617Z,13.38
2022-08-20T02:19:48.531Z,13.29
2022-08-20T02:22:24.804Z,13.35
2022-08-20T02:24:51.889Z,13.33
2022-08-20T02:27:19.525Z,13.31
2022-08-20T02:29:46.960Z,13.29
2022-08-20T02:32:31.178Z,13.27
2022-08-20T02:35:03.827Z,13.27
2022-08-20T02:37:31.670Z,13.23
2022-08-20T02:39:59.246Z,13.23
2022-08-20T02:42:26.700Z,13.22
2022-08-20T02:44:54.649Z,13.21
2022-08-20T02:47:21.513Z,13.21
2022-08-20T02:49:48.368Z,13.20
2022-08-20T02:52:15.521Z,13.18
2022-08-20T02:54:42.360Z,13.18
2022-08-20T02:57:14.281Z,13.16
2022-08-20T02:59:41.126Z,13.15
2022-08-20T03:02:07.907Z,13.15
2022-08-20T03:04:34.765Z,13.13
2022-08-20T03:07:01.621Z,13.14
2022-08-20T03:09:28.848Z,13.13
2022-08-20T03:11:55.754Z,13.13
2022-08-20T03:14:23.056Z,13.14
2022-08-20T03:16:50.508Z,13.18
2022-08-20T03:19:17.376Z,13.22
2022-08-20T03:21:44.196Z,13.23
2022-08-20T03:24:11.034Z,13.27
2022-08-20T03:26:37.906Z,13.33
2022-08-20T03:29:05.255Z,13.38
2022-08-20T03:31:32.089Z,13.46
2022-08-20T03:33:58.936Z,13.50
2022-08-20T03:36:29.258Z,13.57
2022-08-20T03:39:03.963Z,13.61
2022-08-20T03:41:32.331Z,13.65
2022-08-20T03:43:59.503Z,13.70
2022-08-20T03:46:26.816Z,13.73
2022-08-20T03:48:59.501Z,13.74
2022-08-20T03:51:30.317Z,13.79
2022-08-20T03:53:57.814Z,13.85
2022-08-20T03:56:25.808Z,13.84
2022-08-20T03:58:53.148Z,13.88
2022-08-20T04:01:45.646Z,13.90
2022-08-20T04:04:12.669Z,13.93
2022-08-20T04:06:40.519Z,13.95
2022-08-20T04:09:09.469Z,13.91
2022-08-20T04:11:39.464Z,13.91
2022-08-20T04:14:06.258Z,13.93
2022-08-20T04:16:34.488Z,13.93
2022-08-20T04:19:03.683Z,13.96
2022-08-20T04:21:32.945Z,13.93
2022-08-20T04:24:02.576Z,13.96
2022-08-20T04:26:30.230Z,13.92
2022-08-20T04:28:57.375Z,13.90
2022-08-20T04:31:33.440Z,13.86
2022-08-20T04:34:08.104Z,13.80
2022-08-20T04:36:35.683Z,13.76
2022-08-20T04:39:03.052Z,13.66
2022-08-20T04:41:30.150Z,13.64
2022-08-20T04:43:58.234Z,13.57
2022-08-20T04:46:28.897Z,13.58
2022-08-20T04:48:57.265Z,13.55
2022-08-20T04:51:25.062Z,13.51
2022-08-20T04:53:56.504Z,13.49
2022-08-20T04:56:27.361Z,13.47
2022-08-20T04:58:57.377Z,13.45
2022-08-20T05:01:24.551Z,13.41
2022-08-20T05:03:55.204Z,13.41
2022-08-20T05:06:26.491Z,13.40
2022-08-20T05:08:56.017Z,13.37
2022-08-20T05:11:33.692Z,13.38
2022-08-20T05:14:08.959Z,13.37
2022-08-20T05:16:39.331Z,13.37
2022-08-20T05:19:09.753Z,13.40
2022-08-20T05:21:37.660Z,13.41
2022-08-20T05:24:06.459Z,13.44
2022-08-20T05:26:34.039Z,13.45
2022-08-20T05:29:00.860Z,13.47
2022-08-20T05:31:30.931Z,13.47
2022-08-20T05:34:12.645Z,13.52
2022-08-20T05:36:44.188Z,13.61
2022-08-20T05:39:13.702Z,13.70
2022-08-20T05:41:40.983Z,13.82
2022-08-20T05:44:11.167Z,13.96
2022-08-20T05:46:43.114Z,14.13
2022-08-20T05:49:14.169Z,14.23
2022-08-20T05:51:41.083Z,14.35
2022-08-20T05:54:08.183Z,14.46
2022-08-20T05:56:36.152Z,14.61
2022-08-20T05:59:06.829Z,14.65
2022-08-20T06:01:38.149Z,14.82
2022-08-20T06:04:24.081Z,14.88
2022-08-20T06:06:54.992Z,14.97
2022-08-20T06:09:31.099Z,15.02
2022-08-20T06:12:04.589Z,15.14
2022-08-20T06:14:32.916Z,15.17
2022-08-20T06:17:15.403Z,15.20
2022-08-20T06:19:44.875Z,15.22
2022-08-20T06:22:19.839Z,15.24
2022-08-20T06:24:53.834Z,15.28
2022-08-20T06:27:21.123Z,15.30
2022-08-20T06:29:49.531Z,15.31
2022-08-20T06:32:17.388Z,15.38
2022-08-20T06:34:49.957Z,15.45
2022-08-20T06:37:30.003Z,15.48
2022-08-20T06:40:08.232Z,15.55
2022-08-20T06:42:35.579Z,15.79
2022-08-20T06:45:06.033Z,16.11
2022-08-20T06:47:34.303Z,16.46
2022-08-20T06:50:01.235Z,16.74
2022-08-20T06:52:52.517Z,17.02
2022-08-20T06:55:17.650Z,17.27
2022-08-20T06:57:44.633Z,17.28
2022-08-20T07:00:17.206Z,17.50
2022-08-20T07:02:44.199Z,17.69
2022-08-20T07:05:11.131Z,17.85
2022-08-20T07:07:38.145Z,17.87
2022-08-20T07:10:09.653Z,17.76
2022-08-20T07:12:36.758Z,17.61
2022-08-20T07:15:07.753Z,17.52
2022-08-20T07:17:35.599Z,17.42
2022-08-20T07:20:12.040Z,17.32
2022-08-20T07:22:39.057Z,17.19
2022-08-20T07:25:09.200Z,17.27
2022-08-20T07:27:36.295Z,17.30
2022-08-20T07:30:24.850Z,17.39
2022-08-20T07:32:52.089Z,17.45
2022-08-20T07:35:20.712Z,17.45
2022-08-20T07:37:50.707Z,17.52
2022-08-20T07:40:26.319Z,17.57
2022-08-20T07:42:58.768Z,17.66
2022-08-20T07:45:25.836Z,17.79
2022-08-20T07:47:53.848Z,17.87
2022-08-20T07:50:25.913Z,18.03
2022-08-20T07:52:53.381Z,18.24
2022-08-20T07:55:22.084Z,18.43
2022-08-20T07:57:50.685Z,18.64
2022-08-20T08:00:21.512Z,18.87
2022-08-20T08:02:48.623Z,19.13
2022-08-20T08:05:16.333Z,19.40
2022-08-20T08:07:43.473Z,19.66
2022-08-20T08:10:18.483Z,19.82
2022-08-20T08:12:51.417Z,20.00
2022-08-20T08:17:52.864Z,20.31
2022-08-20T08:20:22.739Z,20.48
2022-08-20T08:22:50.808Z,20.66
2022-08-20T08:25:17.855Z,20.74
2022-08-20T08:27:47.798Z,20.62
2022-08-20T08:30:16.732Z,20.61
2022-08-20T08:33:02.253Z,20.54
2022-08-20T08:35:32.725Z,20.36
2022-08-20T08:38:02.040Z,20.25
2022-08-20T08:40:32.109Z,20.21
2022-08-20T08:43:04.251Z,20.35
2022-08-20T08:45:45.987Z,20.47
2022-08-20T08:48:18.576Z,20.58
2022-08-20T08:50:53.878Z,20.63
2022-08-20T08:53:27.304Z,20.62
2022-08-20T08:55:54.924Z,20.76
2022-08-20T08:58:21.888Z,20.86
2022-08-20T09:00:56.426Z,20.98
2022-08-20T09:03:36.960Z,21.00
2022-08-20T09:06:04.792Z,20.88
2022-08-20T09:08:57.594Z,20.83
2022-08-20T09:11:25.882Z,20.77
2022-08-20T09:13:56.301Z,20.66
2022-08-20T09:16:25.453Z,20.55
2022-08-20T09:18:55.248Z,20.45
2022-08-20T09:21:22.091Z,20.23
2022-08-20T09:23:49.123Z,20.22
2022-08-20T09:26:15.962Z,20.22
2022-08-20T09:28:43.009Z,20.28
2022-08-20T09:31:10.137Z,20.23
2022-08-20T09:33:36.973Z,20.33
2022-08-20T09:36:04.313Z,20.38
2022-08-20T09:38:51.144Z,20.39
2022-08-20T09:41:17.981Z,20.41
2022-08-20T09:43:44.842Z,20.40
2022-08-20T09:46:11.925Z,20.35
2022-08-20T09:48:39.279Z,20.37
2022-08-20T09:51:06.432Z,20.34
2022-08-20T09:53:33.303Z,20.43
2022-08-20T09:56:00.740Z,20.44
2022-08-20T09:58:49.937Z,20.54
2022-08-20T10:01:20.281Z,20.58
2022-08-20T10:03:49.531Z,20.69
2022-08-20T10:06:19.982Z,20.73
2022-08-20T10:08:48.297Z,20.79
2022-08-20T10:11:16.021Z,20.81
2022-08-20T10:13:45.393Z,20.80
2022-08-20T10:16:12.416Z,20.82
2022-08-20T10:18:39.258Z,20.86
2022-08-20T10:21:11.294Z,20.82
2022-08-20T10:23:38.241Z,20.77
2022-08-20T10:26:05.303Z,20.86
2022-08-20T10:28:32.540Z,20.91
2022-08-20T10:30:59.438Z,20.94
2022-08-20T10:33:26.328Z,21.01
2022-08-20T10:35:59.663Z,21.07
2022-08-20T10:38:26.929Z,20.96
2022-08-20T10:40:53.805Z,20.83
2022-08-20T10:43:20.595Z,20.79
2022-08-20T10:45:47.420Z,20.64
2022-08-20T10:48:18.226Z,20.63
2022-08-20T10:50:48.071Z,20.61
2022-08-20T10:53:14.907Z,20.57
2022-08-20T10:55:41.815Z,20.39
2022-08-20T10:58:11.371Z,20.49
2022-08-20T11:00:40.816Z,20.53
2022-08-20T11:03:08.096Z,20.62
2022-08-20T11:05:35.088Z,20.73
2022-08-20T11:08:04.907Z,20.91
2022-08-20T11:10:35.371Z,21.01
2022-08-20T11:13:04.804Z,21.06
2022-08-20T11:15:34.592Z,21.12
2022-08-20T11:18:01.580Z,21.04
2022-08-20T11:20:28.894Z,21.10
2022-08-20T11:22:56.136Z,21.06
2022-08-20T11:25:25.150Z,21.13
2022-08-20T11:27:53.788Z,21.08
2022-08-20T11:30:26.084Z,21.12
2022-08-20T11:32:53.139Z,21.15
2022-08-20T11:35:43.479Z,21.19
2022-08-20T11:38:11.086Z,21.19
2022-08-20T11:40:37.946Z,21.23
2022-08-20T11:43:20.282Z,21.35
2022-08-20T11:45:52.144Z,21.43
2022-08-20T11:48:19.204Z,21.49
2022-08-20T11:50:47.748Z,21.63
2022-08-20T11:53:15.088Z,21.69
2022-08-20T11:55:43.151Z,21.74
2022-08-20T11:58:10.653Z,21.87
2022-08-20T12:00:37.643Z,21.89
2022-08-20T12:03:09.368Z,21.97
2022-08-20T12:05:38.544Z,22.06
2022-08-20T12:08:06.588Z,22.08
2022-08-20T12:10:33.989Z,22.11
2022-08-20T12:13:02.667Z,22.15
2022-08-20T12:15:36.223Z,22.19
2022-08-20T12:18:08.178Z,22.13
2022-08-20T12:20:36.637Z,21.98
2022-08-20T12:23:04.405Z,21.93
2022-08-20T12:25:31.227Z,22.04
2022-08-20T12:28:00.031Z,22.13
2022-08-20T12:30:27.027Z,22.20
2022-08-20T12:32:53.954Z,22.27
2022-08-20T12:35:21.192Z,22.31
2022-08-20T12:37:50.028Z,22.33
2022-08-20T12:40:32.165Z,22.40
2022-08-20T12:43:01.568Z,22.50
2022-08-20T12:45:29.504Z,22.54
2022-08-20T12:48:05.048Z,22.71
2022-08-20T12:50:32.796Z,22.84
2022-08-20T12:53:01.372Z,23.03
2022-08-20T12:55:28.996Z,23.21
2022-08-20T12:58:01.612Z,23.37
2022-08-20T13:00:39.471Z,23.40
2022-08-20T13:03:13.088Z,23.38
2022-08-20T13:05:41.103Z,23.29
2022-08-20T13:08:10.927Z,23.23
2022-08-20T13:10:45.657Z,23.14
2022-08-20T13:13:17.592Z,23.05
2022-08-20T13:15:47.136Z,22.86
2022-08-20T13:18:13.956Z,22.93
2022-08-20T13:20:41.013Z,22.97
2022-08-20T13:23:07.868Z,22.90
2022-08-20T13:25:35.091Z,22.91
2022-08-20T13:28:04.702Z,22.87
2022-08-20T13:30:36.890Z,22.89
2022-08-20T13:33:03.806Z,22.97
2022-08-20T13:35:31.410Z,23.19
2022-08-20T13:37:58.342Z,23.32
2022-08-20T13:40:26.122Z,23.33
2022-08-20T13:42:52.996Z,23.33
2022-08-20T13:45:19.984Z,23.24
2022-08-20T13:47:47.306Z,23.23
2022-08-20T13:50:19.415Z,23.37
2022-08-20T13:52:46.765Z,23.40
2022-08-20T13:55:18.751Z,23.34
2022-08-20T13:57:46.669Z,23.38
2022-08-20T14:00:30.801Z,23.20
2022-08-20T14:03:03.642Z,23.11
2022-08-20T14:05:31.496Z,23.10
2022-08-20T14:08:21.453Z,23.23
2022-08-20T14:10:51.600Z,23.27
2022-08-20T14:13:23.115Z,23.27
2022-08-20T14:15:50.354Z,23.42
2022-08-20T14:18:17.414Z,23.41
2022-08-20T14:20:45.489Z,23.40
2022-08-20T14:23:13.974Z,23.44
2022-08-20T14:25:40.949Z,23.47
2022-08-20T14:28:18.205Z,23.46
2022-08-20T14:30:47.319Z,23.63
2022-08-20T14:33:19.813Z,23.82
2022-08-20T14:35:46.709Z,23.88
2022-08-20T14:38:13.930Z,23.94
2022-08-20T14:40:41.093Z,23.98
2022-08-20T14:43:07.972Z,24.00
2022-08-20T14:45:34.842Z,23.72
2022-08-20T14:48:02.060Z,23.82
2022-08-20T14:50:32.683Z,23.61
2022-08-20T14:53:00.997Z,23.63
2022-08-20T14:55:32.440Z,23.65
2022-08-20T14:57:59.805Z,23.66
2022-08-20T15:00:29.990Z,23.76
2022-08-20T15:02:57.630Z,23.81
2022-08-20T15:05:24.910Z,23.71
2022-08-20T15:07:53.909Z,23.72
2022-08-20T15:10:29.162Z,23.69
2022-08-20T15:12:57.151Z,23.57
2022-08-20T15:15:25.277Z,23.59
2022-08-20T15:18:00.538Z,23.50
2022-08-20T15:20:32.231Z,23.44
2022-08-20T15:22:59.769Z,23.49
2022-08-20T15:25:36.429Z,23.71
2022-08-20T15:28:09.052Z,23.88
2022-08-20T15:30:38.443Z,23.89
2022-08-20T15:33:05.483Z,23.83
2022-08-20T15:35:32.912Z,23.76
2022-08-20T15:38:01.096Z,23.66
2022-08-20T15:40:31.923Z,23.48
2022-08-20T15:43:01.861Z,23.41
2022-08-20T15:45:29.332Z,23.39
2022-08-20T15:48:17.993Z,23.43
2022-08-20T15:50:53.625Z,23.45
2022-08-20T15:53:26.772Z,23.45
2022-08-20T15:56:13.113Z,23.46
2022-08-20T15:59:05.539Z,23.38
2022-08-20T16:02:10.052Z,23.31
2022-08-20T16:05:09.538Z,23.31
2022-08-20T16:08:13.984Z,23.18
2022-08-20T16:11:04.085Z,23.10
2022-08-20T16:13:45.320Z,23.01
2022-08-20T16:16:22.759Z,22.96
2022-08-20T16:18:53.212Z,22.89
2022-08-20T16:21:30.985Z,22.83
2022-08-20T16:23:58.109Z,22.78
2022-08-20T16:26:43.760Z,22.59
2022-08-20T16:29:37.942Z,22.54
2022-08-20T16:32:25.756Z,22.51
2022-08-20T16:35:04.319Z,22.50
2022-08-20T16:38:08.227Z,22.45
2022-08-20T16:41:00.986Z,22.37
2022-08-20T16:43:35.178Z,22.30
2022-08-20T16:46:17.845Z,22.33
2022-08-20T16:48:58.261Z,22.20
2022-08-20T16:51:50.950Z,22.32
2022-08-20T16:54:28.395Z,22.26
2022-08-20T16:57:04.299Z,22.16
2022-08-20T16:59:32.305Z,22.14
2022-08-20T17:02:04.274Z,22.13
2022-08-20T17:04:34.589Z,22.18
2022-08-20T17:07:05.517Z,22.15
2022-08-20T17:09:44.008Z,22.15
2022-08-20T17:12:25.600Z,22.18
2022-08-20T17:14:58.171Z,22.16
2022-08-20T17:17:33.664Z,22.13
2022-08-20T17:20:19.853Z,22.13
2022-08-20T17:23:08.681Z,21.91
2022-08-20T17:25:40.367Z,21.93
2022-08-20T17:28:19.817Z,21.94
2022-08-20T17:30:48.111Z,21.99
2022-08-20T17:33:37.292Z,21.97
2022-08-20T17:36:26.395Z,21.93
2022-08-20T17:38:58.901Z,21.94
2022-08-20T17:41:36.254Z,21.92
2022-08-20T17:44:08.000Z,21.83
2022-08-20T17:46:43.383Z,21.92
2022-08-20T17:49:15.721Z,21.86
2022-08-20T17:51:50.083Z,21.93
2022-08-20T17:54:27.501Z,21.93
2022-08-20T17:57:00.723Z,21.91
2022-08-20T17:59:59.835Z,21.85
2022-08-20T18:02:21.316Z,21.78
2022-08-20T18:04:50.956Z,21.67
2022-08-20T18:07:36.211Z,21.59
2022-08-20T18:10:13.301Z,21.43
2022-08-20T18:12:46.289Z,21.32
2022-08-20T18:15:23.625Z,21.26
2022-08-20T18:18:26.277Z,21.16
2022-08-20T18:21:43.648Z,21.14
2022-08-20T18:24:24.518Z,20.92
2022-08-20T18:27:02.257Z,20.96
2022-08-20T18:29:37.307Z,20.94
2022-08-20T18:32:10.217Z,20.84
2022-08-20T18:34:41.495Z,20.77
2022-08-20T18:37:31.248Z,20.65
2022-08-20T18:40:14.945Z,20.60
2022-08-20T18:42:42.341Z,20.56
2022-08-20T18:45:12.434Z,20.51
2022-08-20T18:47:45.254Z,20.47
2022-08-20T18:50:32.476Z,20.38
2022-08-20T18:53:11.649Z,20.28
2022-08-20T18:55:43.838Z,20.28
2022-08-20T18:58:15.801Z,20.25
2022-08-20T19:00:49.758Z,20.15
2022-08-20T19:03:23.813Z,20.11
2022-08-20T19:05:50.585Z,20.08
2022-08-20T19:08:21.764Z,20.02
2022-08-20T19:11:13.831Z,19.96
2022-08-20T19:14:05.423Z,19.94
2022-08-20T19:16:42.437Z,19.84
2022-08-20T19:19:35.914Z,19.74
2022-08-20T19:22:04.417Z,19.70
2022-08-20T19:24:35.732Z,19.58
2022-08-20T19:27:08.516Z,19.51
2022-08-20T19:29:49.369Z,19.46
2022-08-20T19:32:27.945Z,19.34
2022-08-20T19:35:02.091Z,19.31
2022-08-20T19:37:50.882Z,19.21
2022-08-20T19:40:29.989Z,19.14
2022-08-20T19:43:00.088Z,19.05
2022-08-20T19:45:38.088Z,19.04
2022-08-20T19:48:35.388Z,18.97
2022-08-20T19:51:33.724Z,18.92
2022-08-20T19:54:00.921Z,18.85
2022-08-20T19:56:28.612Z,18.83
2022-08-20T19:59:09.719Z,18.77
2022-08-20T20:01:37.404Z,18.73
2022-08-20T20:04:14.402Z,18.69
2022-08-20T20:06:47.044Z,18.66
2022-08-20T20:09:25.479Z,18.62
2022-08-20T20:11:58.509Z,18.64
2022-08-20T20:14:31.728Z,18.68
2022-08-20T20:16:59.217Z,18.70
2022-08-20T20:19:28.017Z,18.72
2022-08-20T20:22:24.315Z,18.74
2022-08-20T20:25:22.793Z,18.66
2022-08-20T20:27:54.447Z,18.77
2022-08-20T20:30:34.189Z,18.73
2022-08-20T20:33:13.396Z,18.77
2022-08-20T20:35:40.232Z,18.78
2022-08-20T20:38:11.931Z,18.78
2022-08-20T20:41:03.810Z,18.73
2022-08-20T20:43:35.711Z,18.76
2022-08-20T20:46:28.888Z,18.58
2022-08-20T20:49:01.788Z,18.68
2022-08-20T20:51:33.571Z,18.65
2022-08-20T20:54:06.783Z,18.68
2022-08-20T20:56:43.492Z,18.69
2022-08-20T20:59:11.002Z,18.64
2022-08-20T21:01:50.043Z,18.60
2022-08-20T21:04:23.272Z,18.53
2022-08-20T21:06:53.344Z,18.46
2022-08-20T21:09:22.256Z,18.39
2022-08-20T21:11:49.896Z,18.28
2022-08-20T21:14:18.143Z,18.23
2022-08-20T21:16:45.482Z,18.18
2022-08-20T21:19:13.499Z,18.09
2022-08-20T21:21:41.304Z,18.00
2022-08-20T21:24:08.861Z,17.94
2022-08-20T21:26:37.202Z,17.85
2022-08-20T21:29:07.471Z,17.76
2022-08-20T21:31:43.446Z,17.69
2022-08-20T21:34:12.652Z,17.57
2022-08-20T21:36:39.880Z,17.50
2022-08-20T21:39:06.925Z,17.45
2022-08-20T21:41:34.947Z,17.38
2022-08-20T21:44:12.920Z,17.27
2022-08-20T21:46:39.696Z,17.21
2022-08-20T21:49:06.559Z,17.18
2022-08-20T21:51:33.429Z,17.06
2022-08-20T21:54:00.242Z,17.05
2022-08-20T21:56:27.513Z,17.02
2022-08-20T21:59:00.357Z,16.98
2022-08-20T22:01:27.879Z,16.92
2022-08-20T22:03:55.312Z,16.89
2022-08-20T22:06:22.142Z,16.86
2022-08-20T22:08:48.945Z,16.82
2022-08-20T22:11:16.675Z,16.79
2022-08-20T22:13:44.612Z,16.74
2022-08-20T22:16:15.923Z,16.71
2022-08-20T22:18:43.447Z,16.66
2022-08-20T22:21:19.952Z,16.62
2022-08-20T22:23:47.779Z,16.60
2022-08-20T22:26:15.752Z,16.56
2022-08-20T22:28:43.587Z,16.55
2022-08-20T22:31:11.713Z,16.49
2022-08-20T22:33:39.703Z,16.47
2022-08-20T22:36:07.348Z,16.45
2022-08-20T22:38:34.524Z,16.42
2022-08-20T22:41:02.188Z,16.36
2022-08-20T22:43:31.083Z,16.37
2022-08-20T22:46:00.809Z,16.33
2022-08-20T22:48:29.392Z,16.24
2022-08-20T22:50:58.429Z,16.25
2022-08-20T22:53:27.227Z,16.17
2022-08-20T22:55:54.728Z,16.15
2022-08-20T22:58:30.968Z,16.13
2022-08-20T23:01:00.167Z,16.12
2022-08-20T23:03:39.841Z,16.09
2022-08-20T23:06:09.515Z,16.07
2022-08-20T23:08:38.134Z,16.05
2022-08-20T23:11:05.456Z,16.06
2022-08-20T23:13:32.337Z,16.07
2022-08-20T23:15:59.317Z,16.05
2022-08-20T23:18:26.422Z,16.07
2022-08-20T23:20:56.483Z,16.05
2022-08-20T23:23:26.425Z,16.05
2022-08-20T23:25:54.519Z,15.98
2022-08-20T23:28:24.679Z,15.98
2022-08-20T23:30:52.283Z,15.93
2022-08-20T23:33:19.715Z,15.92
2022-08-20T23:35:47.695Z,15.90
2022-08-20T23:38:15.563Z,15.87
2022-08-20T23:40:42.971Z,15.84
2022-08-20T23:43:10.718Z,15.79
2022-08-20T23:45:40.093Z,15.75
2022-08-20T23:48:08.415Z,15.72
2022-08-20T23:50:36.632Z,15.71
2022-08-20T23:53:04.848Z,15.70
2022-08-20T23:55:32.919Z,15.69
2022-08-20T23:58:00.024Z,15.64
